createdAt,value
2018-06-18T00:01:53.803Z,5.20
2018-06-18T00:04:21.999Z,5.73
2018-06-18T00:06:50.142Z,5.40
2018-06-18T00:09:18.275Z,5.40
2018-06-18T00:11:46.431Z,5.67
2018-06-18T00:14:14.759Z,5.63
2018-06-18T00:16:42.886Z,5.63
2018-06-18T00:19:11.621Z,6.13
2018-06-18T00:21:41.140Z,5.80
2018-06-18T00:24:09.716Z,6.03
2018-06-18T00:26:37.873Z,4.47
2018-06-18T00:29:05.985Z,5.70
2018-06-18T00:31:34.092Z,5.80
2018-06-18T00:34:02.253Z,6.70
2018-06-18T00:36:30.345Z,5.60
2018-06-18T00:38:58.456Z,6.20
2018-06-18T00:41:26.552Z,6.07
2018-06-18T00:43:54.746Z,6.00
2018-06-18T00:46:22.856Z,5.70
2018-06-18T00:48:50.974Z,7.30
2018-06-18T00:51:19.085Z,5.33
2018-06-18T00:53:47.207Z,5.80
2018-06-18T00:56:16.458Z,5.90
2018-06-18T00:58:44.740Z,5.33
2018-06-18T01:01:13.322Z,5.90
2018-06-18T01:03:41.448Z,5.27
2018-06-18T01:06:09.579Z,6.60
2018-06-18T01:08:37.697Z,5.37
2018-06-18T01:11:05.821Z,5.27
2018-06-18T01:13:33.942Z,4.83
2018-06-18T01:16:02.041Z,5.57
2018-06-18T01:18:30.139Z,5.27
2018-06-18T01:20:58.252Z,4.10
2018-06-18T01:23:47.760Z,5.00
2018-06-18T01:26:15.949Z,4.40
2018-06-18T01:28:44.078Z,6.50
2018-06-18T01:31:12.187Z,4.97
2018-06-18T01:33:40.301Z,5.33
2018-06-18T01:36:08.420Z,6.70
2018-06-18T01:38:36.516Z,5.20
2018-06-18T01:41:04.683Z,5.00
2018-06-18T01:43:32.804Z,4.80
2018-06-18T01:46:00.925Z,5.23
2018-06-18T01:48:29.016Z,5.27
2018-06-18T01:50:57.136Z,5.27
2018-06-18T01:53:25.249Z,4.70
2018-06-18T01:55:53.356Z,4.43
2018-06-18T01:58:21.302Z,4.90
2018-06-18T02:00:49.417Z,4.70
2018-06-18T02:03:17.520Z,4.90
2018-06-18T02:05:45.626Z,5.17
2018-06-18T02:08:13.728Z,5.40
2018-06-18T02:10:42.032Z,4.80
2018-06-18T02:13:10.143Z,5.47
2018-06-18T02:15:38.272Z,4.43
2018-06-18T02:18:06.374Z,4.90
2018-06-18T02:20:34.488Z,5.40
2018-06-18T02:23:02.601Z,6.03
2018-06-18T02:25:30.717Z,5.40
2018-06-18T02:28:04.480Z,6.77
2018-06-18T02:30:38.214Z,5.37
2018-06-18T02:33:11.712Z,6.80
2018-06-18T02:35:45.289Z,5.80
2018-06-18T02:38:18.848Z,6.30
2018-06-18T02:40:47.747Z,6.00
2018-06-18T02:43:17.440Z,7.30
2018-06-18T02:45:45.789Z,6.90
2018-06-18T02:48:13.876Z,7.20
2018-06-18T02:50:42.601Z,7.80
2018-06-18T02:53:10.709Z,8.47
2018-06-18T02:55:40.764Z,8.83
2018-06-18T02:58:08.900Z,9.30
2018-06-18T03:00:36.990Z,8.93
2018-06-18T03:03:05.105Z,7.10
2018-06-18T03:05:33.208Z,8.07
2018-06-18T03:08:01.302Z,7.33
2018-06-18T03:10:29.508Z,8.77
2018-06-18T03:12:57.638Z,7.97
2018-06-18T03:15:25.731Z,7.63
2018-06-18T03:17:53.844Z,8.00
2018-06-18T03:20:27.496Z,7.83
2018-06-18T03:23:01.018Z,7.87
2018-06-18T03:25:34.695Z,7.93
2018-06-18T03:28:08.300Z,7.87
2018-06-18T03:30:36.409Z,8.80
2018-06-18T03:33:04.664Z,7.20
2018-06-18T03:35:32.791Z,7.87
2018-06-18T03:38:01.721Z,7.80
2018-06-18T03:40:29.832Z,7.70
2018-06-18T03:42:57.932Z,8.20
2018-06-18T03:45:29.292Z,8.10
2018-06-18T03:47:59.660Z,9.17
2018-06-18T03:50:27.796Z,8.43
2018-06-18T03:52:55.912Z,7.43
2018-06-18T03:55:32.935Z,8.53
2018-06-18T03:58:05.291Z,8.67
2018-06-18T04:00:40.745Z,8.60
2018-06-18T04:03:14.295Z,8.83
2018-06-18T04:05:47.997Z,8.70
2018-06-18T04:08:16.108Z,7.40
2018-06-18T04:10:49.785Z,7.73
2018-06-18T04:13:17.897Z,8.27
2018-06-18T04:15:46.068Z,8.40
2018-06-18T04:18:14.168Z,7.90
2018-06-18T04:20:49.894Z,7.53
2018-06-18T04:23:18.356Z,8.00
2018-06-18T04:25:46.521Z,7.23
2018-06-18T04:28:14.643Z,7.90
2018-06-18T04:30:44.403Z,8.80
2018-06-18T04:33:13.805Z,7.50
2018-06-18T04:35:41.905Z,7.17
2018-06-18T04:38:10.033Z,7.30
2018-06-18T04:40:38.149Z,6.00
2018-06-18T04:43:11.866Z,6.93
2018-06-18T04:45:43.433Z,6.60
2018-06-18T04:48:16.980Z,6.10
2018-06-18T04:50:50.456Z,6.80
2018-06-18T04:53:18.556Z,6.33
2018-06-18T04:55:46.680Z,5.07
2018-06-18T04:58:14.785Z,5.07
2018-06-18T05:01:03.268Z,5.30
2018-06-18T05:03:31.376Z,5.13
2018-06-18T05:05:59.756Z,6.07
2018-06-18T05:08:36.084Z,3.90
2018-06-18T05:11:04.182Z,4.90
2018-06-18T05:13:32.300Z,3.53
2018-06-18T05:16:00.431Z,3.43
2018-06-18T05:18:28.593Z,3.50
2018-06-18T05:20:56.695Z,3.43
2018-06-18T05:23:24.796Z,4.17
2018-06-18T05:25:55.567Z,4.70
2018-06-18T05:28:23.760Z,4.50
2018-06-18T05:30:51.879Z,3.40
2018-06-18T05:33:20.070Z,3.90
2018-06-18T05:35:48.123Z,4.00
2018-06-18T05:38:33.892Z,3.50
2018-06-18T05:41:02.070Z,3.90
2018-06-18T05:43:30.768Z,3.87
2018-06-18T05:45:59.073Z,3.27
2018-06-18T05:48:27.179Z,3.93
2018-06-18T05:50:55.392Z,3.27
2018-06-18T05:53:23.512Z,3.47
2018-06-18T05:55:51.612Z,3.50
2018-06-18T05:58:19.716Z,3.30
2018-06-18T06:00:48.079Z,4.07
2018-06-18T06:03:16.169Z,3.70
2018-06-18T06:05:44.336Z,3.30
2018-06-18T06:08:12.450Z,4.37
2018-06-18T06:10:40.544Z,3.40
2018-06-18T06:13:09.668Z,3.40
2018-06-18T06:15:37.766Z,3.03
2018-06-18T06:18:06.623Z,3.63
2018-06-18T06:20:35.679Z,3.30
2018-06-18T06:23:03.767Z,3.63
2018-06-18T06:25:31.952Z,3.10
2018-06-18T06:28:00.121Z,3.23
2018-06-18T06:30:28.220Z,3.30
2018-06-18T06:32:56.354Z,3.67
2018-06-18T06:35:30.700Z,3.57
2018-06-18T06:37:58.792Z,3.10
2018-06-18T06:40:26.991Z,3.30
2018-06-18T06:42:55.133Z,3.20
2018-06-18T06:45:23.244Z,3.10
2018-06-18T06:47:51.382Z,3.30
2018-06-18T06:50:19.488Z,2.97
2018-06-18T06:52:47.585Z,3.70
2018-06-18T06:55:15.776Z,3.20
2018-06-18T06:57:43.862Z,4.10
2018-06-18T07:00:12.020Z,3.00
2018-06-18T07:02:40.113Z,3.33
2018-06-18T07:05:08.259Z,4.40
2018-06-18T07:07:36.377Z,3.13
2018-06-18T07:10:04.509Z,2.67
2018-06-18T07:12:32.629Z,3.80
2018-06-18T07:15:00.738Z,3.07
2018-06-18T07:17:28.881Z,4.13
2018-06-18T07:19:56.981Z,2.90
2018-06-18T07:22:25.069Z,3.63
2018-06-18T07:24:53.204Z,3.63
2018-06-18T07:27:21.313Z,3.07
2018-06-18T07:29:49.423Z,3.83
2018-06-18T07:32:17.534Z,3.50
2018-06-18T07:34:45.662Z,3.87
2018-06-18T07:37:13.767Z,3.80
2018-06-18T07:39:41.867Z,3.10
2018-06-18T07:42:10.003Z,3.00
2018-06-18T07:44:38.191Z,3.60
2018-06-18T07:47:06.292Z,3.03
2018-06-18T07:49:34.422Z,3.03
2018-06-18T07:52:02.560Z,3.70
2018-06-18T07:54:30.662Z,3.97
2018-06-18T07:56:58.967Z,3.07
2018-06-18T07:59:27.243Z,3.63
2018-06-18T08:01:55.364Z,3.30
2018-06-18T08:04:23.903Z,3.80
2018-06-18T08:06:52.048Z,3.30
2018-06-18T08:09:20.152Z,3.37
2018-06-18T08:11:48.265Z,2.60
2018-06-18T08:14:16.363Z,3.40
2018-06-18T08:16:44.475Z,3.83
2018-06-18T08:19:12.595Z,2.40
2018-06-18T08:21:40.708Z,2.77
2018-06-18T08:24:08.893Z,3.03
2018-06-18T08:26:36.999Z,2.30
2018-06-18T08:29:05.102Z,2.30
2018-06-18T08:31:33.255Z,2.70
2018-06-18T08:34:01.425Z,2.90
2018-06-18T08:36:29.668Z,2.90
2018-06-18T08:38:57.770Z,2.37
2018-06-18T08:41:25.877Z,3.13
2018-06-18T08:43:54.141Z,3.30
2018-06-18T08:46:22.245Z,1.87
2018-06-18T08:48:55.819Z,2.60
2018-06-18T08:51:29.314Z,2.63
2018-06-18T08:54:02.907Z,2.60
2018-06-18T08:56:36.524Z,2.10
2018-06-18T08:59:10.017Z,2.73
2018-06-18T09:01:42.454Z,2.37
2018-06-18T09:04:16.431Z,2.50
2018-06-18T09:06:45.045Z,2.80
2018-06-18T09:09:13.151Z,2.53
2018-06-18T09:11:41.252Z,2.60
2018-06-18T09:14:09.397Z,2.73
2018-06-18T09:16:37.528Z,2.53
2018-06-18T09:19:05.655Z,2.20
2018-06-18T09:21:33.891Z,1.90
2018-06-18T09:24:02.067Z,2.43
2018-06-18T09:26:30.168Z,3.23
2018-06-18T09:28:58.272Z,2.60
2018-06-18T09:31:26.390Z,3.00
2018-06-18T09:33:54.496Z,2.80
2018-06-18T09:36:22.707Z,2.20
2018-06-18T09:38:50.817Z,1.90
2018-06-18T09:41:18.920Z,2.40
2018-06-18T09:43:47.019Z,2.87
2018-06-18T09:46:15.131Z,2.30
2018-06-18T09:48:48.788Z,2.50
2018-06-18T09:51:22.500Z,2.70
2018-06-18T09:53:56.195Z,2.27
2018-06-18T09:56:29.816Z,2.60
2018-06-18T10:00:06.367Z,2.23
2018-06-18T10:02:34.465Z,2.40
2018-06-18T10:05:02.567Z,2.13
2018-06-18T10:07:30.664Z,1.93
2018-06-18T10:09:58.804Z,1.90
2018-06-18T10:12:26.916Z,2.03
2018-06-18T10:14:54.915Z,1.80
2018-06-18T10:17:23.011Z,2.07
2018-06-18T10:19:51.843Z,1.73
2018-06-18T10:22:19.945Z,2.10
2018-06-18T10:24:48.238Z,1.80
2018-06-18T10:27:16.356Z,1.70
2018-06-18T10:29:44.650Z,1.90
2018-06-18T10:32:18.171Z,2.00
2018-06-18T10:34:51.699Z,2.03
2018-06-18T10:37:25.278Z,1.70
2018-06-18T10:39:59.156Z,2.10
2018-06-18T10:42:32.849Z,1.83
2018-06-18T10:45:00.957Z,2.10
2018-06-18T10:47:29.070Z,2.10
2018-06-18T10:49:57.252Z,2.00
2018-06-18T10:52:25.388Z,2.50
2018-06-18T10:54:53.501Z,2.60
2018-06-18T10:57:21.673Z,3.10
2018-06-18T10:59:49.773Z,3.00
2018-06-18T11:02:17.888Z,3.07
2018-06-18T11:04:51.595Z,3.20
2018-06-18T11:07:19.724Z,2.93
2018-06-18T11:09:47.839Z,3.17
2018-06-18T11:12:15.989Z,2.80
2018-06-18T11:14:44.121Z,3.23
2018-06-18T11:17:18.013Z,2.77
2018-06-18T11:19:51.172Z,2.77
2018-06-18T11:22:19.342Z,2.33
2018-06-18T11:25:56.499Z,2.47
2018-06-18T11:28:24.778Z,2.53
2018-06-18T11:30:52.831Z,2.50
2018-06-18T11:33:20.936Z,2.70
2018-06-18T11:35:49.083Z,2.53
2018-06-18T11:38:17.195Z,3.00
2018-06-18T11:40:45.389Z,3.13
2018-06-18T11:43:13.444Z,2.30
2018-06-18T11:45:41.720Z,2.60
2018-06-18T11:48:14.787Z,2.80
2018-06-18T11:50:42.862Z,3.20
2018-06-18T11:53:11.160Z,2.63
2018-06-18T11:55:39.280Z,3.27
2018-06-18T11:58:07.383Z,3.20
2018-06-18T12:00:40.909Z,2.77
2018-06-18T12:03:14.567Z,3.00
2018-06-18T12:05:48.122Z,3.20
2018-06-18T12:08:21.772Z,3.30
2018-06-18T12:10:50.817Z,2.50
2018-06-18T12:13:18.924Z,2.93
2018-06-18T12:15:47.164Z,3.50
2018-06-18T12:18:15.382Z,2.70
2018-06-18T12:20:43.483Z,2.60
2018-06-18T12:23:11.596Z,2.57
2018-06-18T12:25:39.703Z,2.53
2018-06-18T12:28:07.853Z,2.53
2018-06-18T12:30:35.980Z,2.47
2018-06-18T12:33:04.080Z,2.60
2018-06-18T12:35:32.185Z,2.93
2018-06-18T12:38:00.300Z,2.57
2018-06-18T12:40:28.815Z,2.60
2018-06-18T12:42:56.917Z,2.60
2018-06-18T12:45:30.678Z,2.40
2018-06-18T12:48:04.086Z,2.23
2018-06-18T12:50:37.630Z,2.70
2018-06-18T12:53:11.346Z,3.13
2018-06-18T12:55:44.874Z,2.90
2018-06-18T12:58:12.970Z,2.90
2018-06-18T13:00:41.064Z,2.50
2018-06-18T13:03:12.099Z,2.27
2018-06-18T13:05:40.255Z,2.30
2018-06-18T13:08:08.405Z,2.93
2018-06-18T13:10:36.616Z,2.63
2018-06-18T13:13:04.735Z,2.87
2018-06-18T13:15:32.846Z,3.00
2018-06-18T13:18:00.952Z,2.63
2018-06-18T13:20:29.052Z,2.50
2018-06-18T13:22:57.392Z,3.60
2018-06-18T13:25:25.859Z,2.30
2018-06-18T13:27:59.424Z,2.03
2018-06-18T13:30:27.588Z,3.07
2018-06-18T13:32:55.693Z,2.70
2018-06-18T13:35:24.196Z,2.43
2018-06-18T13:37:57.934Z,2.60
2018-06-18T13:40:31.536Z,2.90
2018-06-18T13:43:05.172Z,3.13
2018-06-18T13:45:34.627Z,3.70
2018-06-18T13:49:11.324Z,2.60
2018-06-18T13:51:39.444Z,2.67
2018-06-18T13:54:07.549Z,2.43
2018-06-18T13:56:35.668Z,2.40
2018-06-18T13:59:03.763Z,2.93
2018-06-18T14:01:31.863Z,2.90
2018-06-18T14:04:00.005Z,3.30
2018-06-18T14:06:28.113Z,3.00
2018-06-18T14:08:56.236Z,2.83
2018-06-18T14:11:24.340Z,2.07
2018-06-18T14:13:52.529Z,2.60
2018-06-18T14:16:20.586Z,2.60
2018-06-18T14:18:48.760Z,3.60
2018-06-18T14:21:16.896Z,2.20
2018-06-18T14:23:45.014Z,3.30
2018-06-18T14:26:13.160Z,2.70
2018-06-18T14:28:41.273Z,2.50
2018-06-18T14:31:14.805Z,2.47
2018-06-18T14:33:48.191Z,2.50
2018-06-18T14:36:21.931Z,2.80
2018-06-18T14:38:55.351Z,2.30
2018-06-18T14:41:23.536Z,2.60
2018-06-18T14:43:51.845Z,2.43
2018-06-18T14:46:19.976Z,3.00
2018-06-18T14:48:48.106Z,3.10
2018-06-18T14:51:16.202Z,2.60
2018-06-18T14:53:44.312Z,2.23
2018-06-18T14:56:20.462Z,2.50
2018-06-18T14:58:53.748Z,3.13
2018-06-18T15:01:21.852Z,3.40
2018-06-18T15:45:01.240Z,1.73
2018-06-18T15:47:29.358Z,1.40
2018-06-18T15:49:57.534Z,2.17
2018-06-18T15:52:25.640Z,1.97
2018-06-18T15:54:54.215Z,2.17
2018-06-18T15:57:22.326Z,1.87
2018-06-18T15:59:50.443Z,1.90
2018-06-18T16:02:18.604Z,1.80
2018-06-18T16:04:46.803Z,1.87
2018-06-18T16:07:14.909Z,1.73
2018-06-18T16:09:42.999Z,1.70
2018-06-18T16:12:11.103Z,1.80
2018-06-18T16:14:39.201Z,1.83
2018-06-18T16:17:07.328Z,3.13
2018-06-18T16:19:35.419Z,2.30
2018-06-18T16:22:03.545Z,1.90
2018-06-18T16:24:31.651Z,1.60
2018-06-18T16:26:59.759Z,1.60
2018-06-18T16:29:27.854Z,1.87
2018-06-18T16:31:55.965Z,1.33
2018-06-18T16:34:24.079Z,1.97
2018-06-18T16:36:52.305Z,1.80
2018-06-18T16:39:20.397Z,1.63
2018-06-18T16:41:48.494Z,1.60
2018-06-18T16:44:16.602Z,1.57
2018-06-18T16:46:44.703Z,2.30
2018-06-18T16:49:13.610Z,2.13
2018-06-18T16:51:43.083Z,1.50
2018-06-18T16:54:11.203Z,1.70
2018-06-18T16:56:39.336Z,1.90
2018-06-18T16:59:07.443Z,1.50
2018-06-18T17:01:35.543Z,1.70
2018-06-18T17:04:03.648Z,2.10
2018-06-18T17:06:31.740Z,2.27
2018-06-18T17:08:59.889Z,2.10
2018-06-18T17:11:27.954Z,1.73
2018-06-18T17:13:56.074Z,1.60
2018-06-18T17:16:24.226Z,1.70
2018-06-18T17:18:52.331Z,2.00
2018-06-18T17:21:20.430Z,1.50
2018-06-18T17:23:48.534Z,1.80
2018-06-18T17:26:16.425Z,1.73
2018-06-18T17:28:44.600Z,2.23
2018-06-18T17:31:12.758Z,1.77
2018-06-18T17:33:40.889Z,1.60
2018-06-18T17:36:09.054Z,1.77
2018-06-18T17:38:37.141Z,1.73
2018-06-18T17:41:05.666Z,1.40
2018-06-18T17:43:33.772Z,1.60
2018-06-18T17:46:01.869Z,1.87
2018-06-18T17:48:30.517Z,1.70
2018-06-18T17:50:58.624Z,1.60
2018-06-18T17:53:26.736Z,1.80
2018-06-18T17:55:54.883Z,1.70
2018-06-18T17:58:23.092Z,1.23
2018-06-18T18:00:51.200Z,1.80
2018-06-18T18:03:19.438Z,1.80
2018-06-18T18:05:47.583Z,1.77
2018-06-18T18:08:15.688Z,1.63
2018-06-18T18:10:43.783Z,1.77
2018-06-18T18:13:11.954Z,1.73
2018-06-18T18:15:39.991Z,1.70
2018-06-18T18:18:08.228Z,1.70
2018-06-18T18:20:36.321Z,1.93
2018-06-18T18:23:04.410Z,1.57
2018-06-18T18:25:32.516Z,1.70
2018-06-18T18:28:00.628Z,2.17
2018-06-18T18:30:28.720Z,1.70
2018-06-18T18:32:56.833Z,3.00
2018-06-18T18:35:24.936Z,2.50
2018-06-18T18:37:53.075Z,2.70
2018-06-18T18:40:21.176Z,2.50
2018-06-18T18:42:49.316Z,2.40
2018-06-18T18:45:17.426Z,2.80
2018-06-18T18:47:45.535Z,2.70
2018-06-18T18:50:13.638Z,2.93
2018-06-18T18:52:41.756Z,2.80
2018-06-18T18:55:50.128Z,2.50
2018-06-18T18:58:29.581Z,2.60
2018-06-18T19:00:57.734Z,2.53
2018-06-18T19:03:27.519Z,3.17
2018-06-18T19:05:57.015Z,3.00
2018-06-18T19:08:29.911Z,2.90
2018-06-18T19:10:59.500Z,2.73
2018-06-18T19:13:30.851Z,3.40
2018-06-18T19:15:59.537Z,3.83
2018-06-18T19:18:27.680Z,4.00
2018-06-18T19:21:04.127Z,3.20
2018-06-18T19:23:32.443Z,3.40
2018-06-18T19:26:00.548Z,3.57
2018-06-18T19:28:28.783Z,2.80
2018-06-18T19:31:14.207Z,3.77
2018-06-18T19:33:51.157Z,3.40
2018-06-18T19:36:19.277Z,4.03
2018-06-18T19:38:47.428Z,3.83
2018-06-18T19:41:15.536Z,3.60
2018-06-18T19:43:43.645Z,4.37
2018-06-18T19:46:11.857Z,4.47
2018-06-18T19:48:50.055Z,3.83
2018-06-18T19:51:18.176Z,3.47
2018-06-18T19:53:46.298Z,3.70
2018-06-18T19:56:14.573Z,3.03
2018-06-18T19:58:42.575Z,3.90
2018-06-18T20:01:10.833Z,3.80
2018-06-18T20:06:32.179Z,2.97
2018-06-18T20:09:00.279Z,2.63
2018-06-18T20:11:28.402Z,2.70
2018-06-18T20:13:56.512Z,3.43
2018-06-18T20:16:24.625Z,2.63
2018-06-18T20:18:52.735Z,3.47
2018-06-18T20:21:20.839Z,3.43
2018-06-18T20:23:48.959Z,3.43
2018-06-18T20:26:17.130Z,3.63
2018-06-18T20:28:45.291Z,3.50
2018-06-18T20:31:13.430Z,4.20
2018-06-18T20:33:44.729Z,3.87
2018-06-18T20:36:14.266Z,3.67
2018-06-18T20:38:42.384Z,4.20
2018-06-18T20:41:10.600Z,4.23
2018-06-18T20:43:53.907Z,3.63
2018-06-18T20:46:22.084Z,3.63
2018-06-18T20:48:50.190Z,3.73
2018-06-18T20:51:18.311Z,3.97
2018-06-18T20:53:46.435Z,3.30
2018-06-18T20:56:14.694Z,3.40
2018-06-18T20:58:42.876Z,3.87
2018-06-18T21:01:10.989Z,3.50
2018-06-18T21:03:39.091Z,3.30
2018-06-18T21:06:07.212Z,3.50
2018-06-18T21:08:35.429Z,3.50
2018-06-18T21:11:03.552Z,3.30
2018-06-18T21:13:31.688Z,3.33
2018-06-18T21:15:59.794Z,3.27
2018-06-18T21:18:27.916Z,3.70
2018-06-18T21:20:56.029Z,3.47
2018-06-18T21:23:24.115Z,3.90
2018-06-18T21:25:52.243Z,4.27
2018-06-18T21:28:20.390Z,3.90
2018-06-18T21:30:48.584Z,4.00
2018-06-18T21:33:16.676Z,4.27
2018-06-18T21:35:44.780Z,3.47
2018-06-18T21:38:12.918Z,3.87
2018-06-18T21:40:41.040Z,4.63
2018-06-18T21:43:09.143Z,4.17
2018-06-18T21:45:37.266Z,4.30
2018-06-18T21:48:05.359Z,4.40
2018-06-18T21:50:33.466Z,4.30
2018-06-18T21:53:01.588Z,4.83
2018-06-18T21:55:29.712Z,4.83
2018-06-18T21:57:57.806Z,5.33
2018-06-18T22:00:32.206Z,5.17
2018-06-18T22:03:00.331Z,4.90
2018-06-18T22:05:29.240Z,4.67
2018-06-18T22:07:57.385Z,3.97
2018-06-18T22:10:25.500Z,4.20
2018-06-18T22:12:53.590Z,4.07
2018-06-18T22:15:21.696Z,4.33
2018-06-18T22:17:49.795Z,4.17
2018-06-18T22:20:17.902Z,4.10
2018-06-18T22:22:46.006Z,4.20
2018-06-18T22:25:14.116Z,4.37
2018-06-18T22:27:42.227Z,5.10
2018-06-18T22:30:10.338Z,4.60
2018-06-18T22:32:38.428Z,4.53
2018-06-18T22:35:06.588Z,4.30
2018-06-18T22:37:34.731Z,5.13
2018-06-18T22:40:02.836Z,4.50
2018-06-18T22:42:31.022Z,4.90
2018-06-18T22:44:59.141Z,5.10
2018-06-18T22:47:27.254Z,4.93
2018-06-18T22:49:55.404Z,4.70
2018-06-18T22:52:23.550Z,5.27
2018-06-18T22:54:51.763Z,4.47
2018-06-18T22:57:19.887Z,4.40
2018-06-18T22:59:48.012Z,5.07
2018-06-18T23:02:33.518Z,3.83
2018-06-18T23:05:01.640Z,4.10
2018-06-18T23:07:29.763Z,4.30
2018-06-18T23:09:57.870Z,6.10
2018-06-18T23:12:32.015Z,4.30
2018-06-18T23:15:00.215Z,4.33
2018-06-18T23:17:28.448Z,4.00
2018-06-18T23:19:56.538Z,4.30
2018-06-18T23:22:24.883Z,4.90
2018-06-18T23:24:53.006Z,4.10
2018-06-18T23:27:21.125Z,3.90
2018-06-18T23:29:49.003Z,4.33
2018-06-18T23:32:17.185Z,4.00
2018-06-18T23:34:45.267Z,4.03
2018-06-18T23:37:13.388Z,3.70
2018-06-18T23:39:41.501Z,3.93
2018-06-18T23:42:09.607Z,4.10
2018-06-18T23:44:37.721Z,3.47
2018-06-18T23:47:05.847Z,3.90
2018-06-18T23:49:33.951Z,4.40
2018-06-18T23:52:02.058Z,3.53
2018-06-18T23:54:30.151Z,3.97
2018-06-18T23:56:58.307Z,3.80
2018-06-18T23:59:26.451Z,4.17
